createdAt,value
2019-02-19T18:35:55.051Z,99122.59
2019-02-19T18:38:24.802Z,99125.78
2019-02-19T18:40:56.901Z,99122.92
2019-02-19T18:43:26.440Z,99119.05
2019-02-19T18:45:56.474Z,99127.81
2019-02-19T18:48:26.115Z,99121.89
2019-02-19T18:50:58.440Z,99119.53
2019-02-19T18:53:27.343Z,99124.08
2019-02-19T18:55:56.991Z,99128.97
2019-02-19T18:58:26.504Z,99126.77
2019-02-19T19:00:56.093Z,99127.42
2019-02-19T19:03:25.674Z,99129.77
2019-02-19T19:05:55.182Z,99131.76
2019-02-19T19:08:24.801Z,99130.55
2019-02-19T19:10:54.327Z,99133.93
2019-02-19T19:13:23.964Z,99136.27
2019-02-19T19:15:53.561Z,99131.18
2019-02-19T19:18:23.116Z,99128.31
2019-02-19T19:20:52.666Z,99136.07
2019-02-19T19:23:22.350Z,99137.97
2019-02-19T19:25:51.958Z,99143.08
2019-02-19T19:28:21.589Z,99139.25
2019-02-19T19:30:51.326Z,99144.49
2019-02-19T19:33:20.942Z,99141.65
2019-02-19T19:35:50.516Z,99137.77
2019-02-19T19:38:20.242Z,99141.50
2019-02-19T19:40:49.754Z,99141.50
2019-02-19T19:43:19.261Z,99138.47
2019-02-19T19:45:48.857Z,99131.73
2019-02-19T19:48:18.491Z,99130.05
2019-02-19T19:50:47.999Z,99134.28
2019-02-19T19:53:17.621Z,99132.28
2019-02-19T19:55:47.143Z,99133.80
2019-02-19T19:58:16.651Z,99140.22
2019-02-19T20:00:46.324Z,99145.27
2019-02-19T20:03:15.843Z,99141.42
2019-02-19T20:05:45.455Z,99133.84
2019-02-19T20:08:15.032Z,99132.99
2019-02-19T20:10:44.678Z,99141.59
2019-02-19T20:13:15.282Z,99144.78
2019-02-19T20:15:44.810Z,99135.88
2019-02-19T20:18:14.445Z,99139.59
2019-02-19T20:20:44.155Z,99134.39
2019-02-19T20:23:13.705Z,99133.55
2019-02-19T20:25:43.331Z,99136.74
2019-02-19T20:28:12.989Z,99133.05
2019-02-19T20:30:42.643Z,99140.94
2019-02-19T20:33:12.274Z,99135.19
2019-02-19T20:35:41.803Z,99151.15
2019-02-19T20:38:12.415Z,99152.80
2019-02-19T20:40:42.038Z,99141.45
2019-02-19T20:43:12.521Z,99138.91
2019-02-19T20:45:42.216Z,99139.39
2019-02-19T20:48:11.722Z,99150.62
2019-02-19T20:50:41.277Z,99149.63
2019-02-19T20:53:10.834Z,99149.42
2019-02-19T20:55:40.373Z,99153.81
2019-02-19T20:58:09.902Z,99153.31
2019-02-19T21:00:39.447Z,99160.89
2019-02-19T21:03:09.148Z,99158.00
2019-02-19T21:05:38.712Z,99157.16
2019-02-19T21:08:08.232Z,99153.61
2019-02-19T21:10:37.807Z,99169.63
2019-02-19T21:13:07.300Z,99171.98
2019-02-19T21:15:37.592Z,99181.42
2019-02-19T21:18:07.103Z,99169.80
2019-02-19T21:20:36.621Z,99170.64
2019-02-19T21:23:06.183Z,99171.68
2019-02-19T21:25:35.635Z,99170.33
2019-02-19T21:28:05.170Z,99171.68
2019-02-19T21:30:34.686Z,99171.68
2019-02-19T21:33:04.398Z,99176.53
2019-02-19T21:35:34.591Z,99176.53
2019-02-19T21:38:04.985Z,99178.22
2019-02-19T21:40:35.426Z,99179.07
2019-02-19T21:43:05.829Z,99178.06
2019-02-19T21:45:35.853Z,99182.92
2019-02-19T21:48:06.117Z,99181.27
2019-02-19T21:50:36.390Z,99185.81
2019-02-19T21:53:06.732Z,99184.13
2019-02-19T21:55:37.095Z,99182.47
2019-02-19T21:58:06.549Z,99188.67
2019-02-19T22:00:37.430Z,99191.70
2019-02-19T22:03:07.025Z,99196.09
2019-02-19T22:05:36.590Z,99197.75
2019-02-19T22:08:06.233Z,99196.41
2019-02-19T22:10:36.091Z,99195.90
2019-02-19T22:13:05.730Z,99192.70
2019-02-19T22:15:35.313Z,99194.70
2019-02-19T22:18:04.877Z,99201.08
2019-02-19T22:20:59.256Z,99197.69
2019-02-19T22:23:28.882Z,99203.59
2019-02-19T22:25:58.347Z,99201.55
2019-02-19T22:28:27.860Z,99198.49
2019-02-19T22:30:58.578Z,99208.58
2019-02-19T22:33:28.518Z,99207.88
2019-02-19T22:35:58.105Z,99207.72
2019-02-19T22:38:29.884Z,99209.91
2019-02-19T22:40:59.383Z,99217.81
2019-02-19T22:43:28.937Z,99215.61
2019-02-19T22:45:58.492Z,99226.24
2019-02-19T22:48:28.075Z,99233.15
2019-02-19T22:50:57.764Z,99234.00
2019-02-19T22:53:55.057Z,99232.14
2019-02-19T22:56:30.306Z,99229.10
2019-02-19T22:59:01.315Z,99230.65
2019-02-19T23:01:49.956Z,99221.37
2019-02-19T23:04:19.542Z,99218.72
2019-02-19T23:06:49.047Z,99213.34
2019-02-19T23:09:18.587Z,99221.63
2019-02-19T23:11:48.465Z,99217.44
2019-02-19T23:14:19.223Z,99221.64
2019-02-19T23:16:48.738Z,99223.35
2019-02-19T23:19:18.313Z,99224.05
2019-02-19T23:21:47.830Z,99221.20
2019-02-19T23:24:17.450Z,99223.06
2019-02-19T23:26:46.985Z,99222.22
2019-02-19T23:29:16.654Z,99233.00
2019-02-19T23:31:46.224Z,99225.41
2019-02-19T23:34:15.801Z,99237.05
2019-02-19T23:36:51.433Z,99235.70
2019-02-19T23:39:20.944Z,99239.55
2019-02-19T23:41:50.446Z,99243.44
2019-02-19T23:44:19.996Z,99251.67
2019-02-19T23:46:49.478Z,99264.96
2019-02-19T23:49:19.390Z,99264.27
2019-02-19T23:51:49.342Z,99260.09
2019-02-19T23:54:18.884Z,99261.75
2019-02-19T23:56:48.481Z,99271.02
2019-02-19T23:59:18.123Z,99268.48
